createdAt,value
2022-11-24T00:02:17.543Z,8.80
2022-11-24T00:04:44.097Z,8.83
2022-11-24T00:07:10.687Z,8.63
2022-11-24T00:09:37.237Z,8.80
2022-11-24T00:12:03.880Z,8.71
2022-11-24T00:14:30.499Z,8.76
2022-11-24T00:16:57.118Z,8.76
2022-11-24T00:19:23.829Z,8.74
2022-11-24T00:21:50.398Z,8.72
2022-11-24T00:24:16.991Z,8.77
2022-11-24T00:26:43.481Z,8.77
2022-11-24T00:29:11.753Z,8.84
2022-11-24T00:31:42.430Z,8.74
2022-11-24T00:34:14.042Z,8.67
2022-11-24T00:36:41.853Z,8.52
2022-11-24T00:39:12.338Z,8.41
2022-11-24T00:41:39.337Z,8.30
2022-11-24T00:44:06.382Z,8.15
2022-11-24T00:46:33.639Z,8.12
2022-11-24T00:49:00.511Z,7.98
2022-11-24T00:51:29.794Z,7.94
2022-11-24T00:54:01.041Z,7.87
2022-11-24T00:56:29.704Z,7.80
2022-11-24T00:58:56.421Z,7.66
2022-11-24T01:01:25.557Z,7.63
2022-11-24T01:03:52.686Z,7.28
2022-11-24T01:06:21.634Z,7.52
2022-11-24T01:08:48.407Z,7.49
2022-11-24T01:11:20.036Z,7.46
2022-11-24T01:13:49.157Z,7.34
2022-11-24T01:16:31.275Z,7.35
2022-11-24T01:18:58.292Z,7.26
2022-11-24T01:21:25.139Z,7.25
2022-11-24T01:23:51.629Z,7.20
2022-11-24T01:26:22.256Z,6.87
2022-11-24T01:28:53.260Z,7.07
2022-11-24T01:31:19.777Z,7.04
2022-11-24T01:33:46.259Z,6.92
2022-11-24T01:36:13.468Z,6.95
2022-11-24T01:38:40.015Z,6.63
2022-11-24T01:41:15.208Z,6.90
2022-11-24T01:43:42.687Z,6.87
2022-11-24T01:46:28.485Z,6.81
2022-11-24T01:49:24.591Z,6.84
2022-11-24T01:52:09.265Z,6.71
2022-11-24T01:54:46.228Z,6.82
2022-11-24T01:57:42.777Z,6.82
2022-11-24T02:00:12.895Z,6.83
2022-11-24T02:02:39.663Z,6.79
2022-11-24T02:05:11.726Z,6.80
2022-11-24T02:07:38.552Z,6.41
2022-11-24T02:10:14.669Z,6.76
2022-11-24T02:12:45.030Z,6.76
2022-11-24T02:15:11.965Z,6.71
2022-11-24T02:17:38.520Z,6.70
2022-11-24T02:20:08.957Z,6.68
2022-11-24T02:22:54.722Z,6.65
2022-11-24T02:25:27.480Z,6.59
2022-11-24T02:27:55.967Z,6.55
2022-11-24T02:30:23.293Z,6.53
2022-11-24T02:32:51.577Z,6.46
2022-11-24T02:35:18.785Z,6.45
2022-11-24T02:37:45.248Z,6.37
2022-11-24T02:40:15.527Z,6.35
2022-11-24T02:42:46.292Z,6.34
2022-11-24T02:45:16.502Z,6.32
2022-11-24T02:47:43.208Z,6.29
2022-11-24T02:50:09.917Z,6.25
2022-11-24T02:52:36.380Z,6.24
2022-11-24T02:55:04.042Z,6.24
2022-11-24T02:57:30.581Z,6.24
2022-11-24T02:59:57.162Z,6.22
2022-11-24T03:02:23.786Z,6.21
2022-11-24T03:04:50.375Z,6.19
2022-11-24T03:07:16.862Z,6.21
2022-11-24T03:09:43.477Z,6.21
2022-11-24T03:12:09.990Z,6.17
2022-11-24T03:14:36.828Z,6.17
2022-11-24T03:17:04.115Z,6.12
2022-11-24T03:19:30.620Z,6.14
2022-11-24T03:21:57.102Z,6.10
2022-11-24T03:24:23.565Z,6.11
2022-11-24T03:26:50.157Z,6.07
2022-11-24T03:29:16.927Z,6.07
2022-11-24T03:31:43.530Z,6.02
2022-11-24T03:34:10.289Z,5.96
2022-11-24T03:36:36.822Z,5.72
2022-11-24T03:39:03.361Z,5.84
2022-11-24T03:41:29.864Z,5.93
2022-11-24T03:43:56.368Z,5.91
2022-11-24T03:46:22.954Z,5.90
2022-11-24T03:48:49.421Z,5.86
2022-11-24T03:51:15.890Z,5.88
2022-11-24T03:53:42.470Z,5.86
2022-11-24T03:56:09.273Z,5.83
2022-11-24T03:58:35.847Z,5.80
2022-11-24T04:01:03.524Z,5.80
2022-11-24T04:03:30.120Z,5.77
2022-11-24T04:05:56.584Z,5.71
2022-11-24T04:08:23.191Z,5.74
2022-11-24T04:10:53.951Z,5.70
2022-11-24T04:13:22.748Z,5.68
2022-11-24T04:15:49.359Z,5.51
2022-11-24T04:18:15.843Z,5.63
2022-11-24T04:20:42.832Z,5.62
2022-11-24T04:23:09.852Z,5.56
2022-11-24T04:25:36.795Z,5.57
2022-11-24T04:28:03.597Z,5.54
2022-11-24T04:30:30.203Z,5.51
2022-11-24T04:32:57.336Z,5.54
2022-11-24T04:35:23.944Z,5.43
2022-11-24T04:37:50.525Z,5.52
2022-11-24T04:40:17.601Z,5.21
2022-11-24T04:42:44.107Z,5.49
2022-11-24T04:45:11.470Z,5.48
2022-11-24T04:47:38.463Z,5.32
2022-11-24T04:50:07.662Z,5.47
2022-11-24T04:52:34.415Z,5.47
2022-11-24T04:55:00.948Z,5.45
2022-11-24T04:57:27.859Z,5.40
2022-11-24T04:59:55.161Z,5.39
2022-11-24T05:02:22.363Z,5.33
2022-11-24T05:04:48.982Z,5.34
2022-11-24T05:07:19.011Z,5.32
2022-11-24T05:10:05.759Z,5.31
2022-11-24T05:12:32.233Z,5.29
2022-11-24T05:14:59.683Z,5.09
2022-11-24T05:17:34.911Z,5.26
2022-11-24T05:20:01.731Z,5.24
2022-11-24T05:22:29.337Z,5.05
2022-11-24T05:24:55.890Z,5.03
2022-11-24T05:27:22.730Z,4.83
2022-11-24T05:29:49.400Z,5.12
2022-11-24T05:32:15.904Z,5.13
2022-11-24T05:34:42.360Z,5.13
2022-11-24T05:37:08.998Z,5.13
2022-11-24T05:39:36.588Z,5.14
2022-11-24T05:42:25.104Z,5.16
2022-11-24T05:44:52.303Z,5.20
2022-11-24T05:47:19.249Z,5.22
2022-11-24T05:49:45.762Z,5.09
2022-11-24T05:52:12.346Z,5.22
2022-11-24T05:54:38.926Z,5.20
2022-11-24T05:57:05.404Z,5.27
2022-11-24T05:59:32.078Z,5.31
2022-11-24T06:01:58.645Z,5.17
2022-11-24T06:04:25.317Z,5.29
2022-11-24T06:06:52.134Z,5.34
2022-11-24T06:09:18.650Z,5.34
2022-11-24T06:11:47.582Z,5.28
2022-11-24T06:14:14.499Z,5.17
2022-11-24T06:16:41.112Z,5.37
2022-11-24T06:19:07.714Z,5.39
2022-11-24T06:21:34.180Z,5.42
2022-11-24T06:24:00.693Z,5.24
2022-11-24T06:26:27.617Z,5.32
2022-11-24T06:28:54.260Z,5.49
2022-11-24T06:31:20.830Z,5.53
2022-11-24T06:33:47.626Z,5.58
2022-11-24T06:36:14.892Z,5.61
2022-11-24T06:38:41.421Z,5.61
2022-11-24T06:41:12.171Z,5.62
2022-11-24T06:43:38.713Z,5.60
2022-11-24T06:46:05.564Z,5.42
2022-11-24T06:48:32.606Z,5.37
2022-11-24T06:51:04.054Z,5.52
2022-11-24T06:53:32.245Z,5.40
2022-11-24T06:56:02.526Z,5.34
2022-11-24T06:58:29.004Z,5.31
2022-11-24T07:00:55.550Z,5.29
2022-11-24T07:03:22.185Z,5.24
2022-11-24T07:05:48.972Z,5.01
2022-11-24T07:08:17.996Z,5.13
2022-11-24T07:10:45.000Z,5.00
2022-11-24T07:13:11.462Z,5.08
2022-11-24T07:15:37.932Z,5.13
2022-11-24T07:18:04.549Z,5.16
2022-11-24T07:20:31.089Z,5.21
2022-11-24T07:22:58.316Z,5.24
2022-11-24T07:25:25.841Z,5.31
2022-11-24T07:27:59.606Z,5.41
2022-11-24T07:30:27.681Z,5.31
2022-11-24T07:33:03.845Z,5.58
2022-11-24T07:35:30.843Z,5.68
2022-11-24T07:37:58.770Z,5.62
2022-11-24T07:40:26.653Z,5.76
2022-11-24T07:42:53.883Z,5.69
2022-11-24T07:45:21.152Z,5.91
2022-11-24T07:47:47.606Z,5.84
2022-11-24T07:50:14.199Z,6.05
2022-11-24T07:52:40.880Z,6.11
2022-11-24T07:55:08.067Z,6.23
2022-11-24T07:57:34.928Z,6.12
2022-11-24T08:00:01.881Z,6.32
2022-11-24T08:02:28.310Z,6.39
2022-11-24T08:04:54.828Z,6.44
2022-11-24T08:07:21.444Z,6.49
2022-11-24T08:09:50.244Z,6.57
2022-11-24T08:12:21.459Z,6.62
2022-11-24T08:14:49.952Z,6.69
2022-11-24T08:17:17.573Z,6.75
2022-11-24T08:19:44.353Z,6.77
2022-11-24T08:22:10.828Z,6.83
2022-11-24T08:24:37.833Z,6.90
2022-11-24T08:27:04.412Z,6.97
2022-11-24T08:29:31.226Z,7.08
2022-11-24T08:31:58.116Z,7.10
2022-11-24T08:34:26.121Z,7.21
2022-11-24T08:36:52.686Z,7.26
2022-11-24T08:39:20.312Z,7.35
2022-11-24T08:41:46.812Z,7.33
2022-11-24T08:44:15.889Z,7.40
2022-11-24T08:47:03.591Z,7.54
2022-11-24T08:49:30.048Z,7.41
2022-11-24T08:51:57.778Z,7.66
2022-11-24T08:54:25.707Z,7.73
2022-11-24T08:56:52.290Z,7.83
2022-11-24T08:59:18.967Z,7.92
2022-11-24T09:01:45.571Z,7.97
2022-11-24T09:04:12.221Z,8.12
2022-11-24T09:06:38.722Z,8.26
2022-11-24T09:09:05.182Z,8.36
2022-11-24T09:11:33.702Z,8.50
2022-11-24T09:14:00.187Z,8.61
2022-11-24T09:16:28.939Z,8.67
2022-11-24T09:18:57.610Z,8.83
2022-11-24T09:21:24.456Z,8.90
2022-11-24T09:23:52.669Z,9.05
2022-11-24T09:26:25.292Z,9.15
2022-11-24T09:28:56.268Z,9.21
2022-11-24T09:31:25.657Z,9.16
2022-11-24T09:33:53.084Z,9.36
2022-11-24T09:36:21.093Z,9.44
2022-11-24T09:38:47.916Z,9.48
2022-11-24T09:41:17.299Z,9.56
2022-11-24T09:44:07.433Z,9.60
2022-11-24T09:47:08.130Z,9.74
2022-11-24T09:49:43.285Z,9.89
2022-11-24T09:52:18.505Z,10.00
2022-11-24T09:54:56.670Z,10.11
2022-11-24T09:57:26.740Z,10.22
2022-11-24T10:00:11.830Z,10.32
2022-11-24T10:02:38.497Z,10.31
2022-11-24T10:05:06.848Z,10.51
2022-11-24T10:08:00.532Z,10.56
2022-11-24T10:10:50.803Z,10.60
2022-11-24T10:13:34.682Z,10.69
2022-11-24T10:16:09.287Z,10.60
2022-11-24T10:18:45.077Z,10.77
2022-11-24T10:21:17.672Z,10.82
2022-11-24T10:23:57.159Z,10.83
2022-11-24T10:26:36.246Z,10.89
2022-11-24T10:29:13.806Z,10.91
2022-11-24T10:31:43.309Z,10.99
2022-11-24T10:34:16.919Z,11.03
2022-11-24T10:37:00.499Z,11.09
2022-11-24T10:39:42.202Z,11.15
2022-11-24T10:42:28.796Z,10.99
2022-11-24T10:45:15.640Z,11.34
2022-11-24T10:47:44.328Z,11.40
2022-11-24T10:50:36.241Z,11.52
2022-11-24T10:53:14.877Z,11.54
2022-11-24T10:55:59.656Z,11.77
2022-11-24T10:58:36.070Z,11.88
2022-11-24T11:01:13.708Z,11.95
2022-11-24T11:03:48.748Z,12.01
2022-11-24T11:06:22.137Z,12.07
2022-11-24T11:08:48.681Z,12.16
2022-11-24T11:11:28.980Z,12.00
2022-11-24T11:14:04.587Z,12.29
2022-11-24T11:16:53.618Z,12.36
2022-11-24T11:19:49.503Z,12.40
2022-11-24T11:22:35.806Z,12.26
2022-11-24T11:25:24.283Z,12.48
2022-11-24T11:27:50.828Z,12.53
2022-11-24T11:35:51.220Z,12.78
2022-11-24T11:38:18.541Z,12.88
2022-11-24T11:40:48.698Z,12.99
2022-11-24T11:43:34.214Z,12.98
2022-11-24T11:46:10.303Z,13.07
2022-11-24T11:48:43.649Z,13.04
2022-11-24T11:51:25.916Z,13.12
2022-11-24T11:54:01.746Z,13.15
2022-11-24T11:56:35.772Z,13.21
2022-11-24T11:59:33.140Z,13.21
2022-11-24T12:02:33.423Z,13.23
2022-11-24T12:05:05.184Z,13.24
2022-11-24T12:08:11.601Z,13.22
2022-11-24T12:10:48.106Z,13.21
2022-11-24T12:13:31.409Z,13.07
2022-11-24T12:16:16.753Z,13.06
2022-11-24T12:19:02.838Z,13.01
2022-11-24T12:21:36.079Z,13.02
2022-11-24T12:24:34.864Z,13.04
2022-11-24T12:27:11.247Z,13.06
2022-11-24T12:29:52.181Z,13.06
2022-11-24T12:32:30.871Z,13.07
2022-11-24T12:35:08.964Z,13.10
2022-11-24T12:37:41.393Z,13.09
2022-11-24T12:41:25.452Z,13.12
2022-11-24T12:43:59.734Z,13.13
2022-11-24T12:46:38.376Z,13.18
2022-11-24T12:49:23.207Z,13.15
2022-11-24T12:51:59.794Z,13.11
2022-11-24T12:54:36.667Z,12.86
2022-11-24T12:57:21.618Z,13.17
2022-11-24T12:59:54.465Z,13.18
2022-11-24T13:02:30.014Z,13.18
2022-11-24T13:05:00.948Z,13.17
2022-11-24T13:07:44.040Z,13.13
2022-11-24T13:10:54.279Z,13.12
2022-11-24T13:13:17.427Z,13.09
2022-11-24T13:16:07.069Z,13.10
2022-11-24T13:19:17.121Z,13.01
2022-11-24T13:21:45.436Z,12.95
2022-11-24T13:24:19.209Z,12.89
2022-11-24T13:26:53.341Z,12.85
2022-11-24T13:29:39.286Z,12.82
2022-11-24T13:32:05.685Z,12.84
2022-11-24T13:34:45.576Z,12.83
2022-11-24T13:37:35.060Z,12.82
2022-11-24T13:40:26.427Z,12.79
2022-11-24T13:43:01.324Z,12.84
2022-11-24T13:45:40.925Z,12.87
2022-11-24T13:48:20.173Z,12.92
2022-11-24T13:50:49.782Z,12.95
2022-11-24T13:53:22.290Z,13.00
2022-11-24T13:56:00.165Z,12.86
2022-11-24T13:58:36.191Z,13.05
2022-11-24T14:01:05.689Z,13.07
2022-11-24T14:03:38.514Z,12.87
2022-11-24T14:06:05.809Z,12.99
2022-11-24T14:08:38.212Z,12.94
2022-11-24T14:11:14.540Z,12.88
2022-11-24T14:13:41.032Z,12.84
2022-11-24T14:16:10.657Z,12.80
2022-11-24T14:18:39.459Z,12.75
2022-11-24T14:21:27.063Z,12.69
2022-11-24T14:23:54.994Z,12.62
2022-11-24T14:26:30.621Z,12.62
2022-11-24T14:29:12.156Z,12.60
2022-11-24T14:31:38.706Z,12.58
2022-11-24T14:34:11.411Z,12.62
2022-11-24T14:36:41.822Z,12.57
2022-11-24T14:39:14.084Z,12.62
2022-11-24T14:41:43.344Z,12.62
2022-11-24T14:44:19.112Z,12.65
2022-11-24T14:46:45.971Z,12.62
2022-11-24T14:49:21.327Z,12.61
2022-11-24T14:51:56.478Z,12.57
2022-11-24T14:54:23.857Z,12.56
2022-11-24T14:56:59.458Z,12.61
2022-11-24T14:59:28.879Z,12.65
2022-11-24T15:01:57.005Z,12.50
2022-11-24T15:05:02.190Z,12.70
2022-11-24T15:07:26.984Z,12.69
2022-11-24T15:09:58.130Z,12.68
2022-11-24T15:12:36.312Z,12.66
2022-11-24T15:15:08.920Z,12.63
2022-11-24T15:17:35.496Z,12.48
2022-11-24T15:20:09.418Z,12.42
2022-11-24T15:22:41.925Z,12.30
2022-11-24T15:25:27.042Z,12.28
2022-11-24T15:27:53.677Z,12.25
2022-11-24T15:30:20.333Z,12.23
2022-11-24T15:32:57.332Z,12.20
2022-11-24T15:35:25.387Z,12.17
2022-11-24T15:37:52.288Z,12.23
2022-11-24T15:40:19.230Z,12.06
2022-11-24T15:42:56.885Z,12.24
2022-11-24T15:45:26.484Z,12.21
2022-11-24T15:47:53.080Z,12.21
2022-11-24T15:50:20.134Z,12.14
2022-11-24T15:52:48.347Z,12.09
2022-11-24T15:55:20.391Z,11.95
2022-11-24T15:57:47.304Z,11.87
2022-11-24T16:00:19.504Z,11.68
2022-11-24T16:02:46.286Z,11.70
2022-11-24T16:05:14.000Z,11.60
2022-11-24T16:07:40.659Z,11.49
2022-11-24T16:10:14.763Z,11.41
2022-11-24T16:12:41.258Z,11.15
2022-11-24T16:15:08.164Z,11.36
2022-11-24T16:17:34.733Z,11.18
2022-11-24T16:20:01.233Z,11.38
2022-11-24T16:22:27.682Z,11.35
2022-11-24T16:24:54.121Z,11.32
2022-11-24T16:27:20.580Z,11.32
2022-11-24T16:29:47.042Z,11.25
2022-11-24T16:32:13.572Z,11.23
2022-11-24T16:34:40.048Z,11.15
2022-11-24T16:37:06.519Z,11.10
2022-11-24T16:39:32.980Z,10.96
2022-11-24T16:41:59.418Z,11.07
2022-11-24T16:44:25.872Z,10.92
2022-11-24T16:46:52.349Z,10.68
2022-11-24T16:49:18.915Z,10.85
2022-11-24T16:51:45.417Z,10.82
2022-11-24T16:54:12.023Z,10.79
2022-11-24T16:56:38.503Z,10.72
2022-11-24T16:59:05.358Z,10.62
2022-11-24T17:01:32.894Z,10.57
2022-11-24T17:04:00.252Z,10.25
2022-11-24T17:06:27.121Z,10.35
2022-11-24T17:08:55.384Z,10.45
2022-11-24T17:11:24.253Z,10.36
2022-11-24T17:13:51.126Z,10.25
2022-11-24T17:16:22.293Z,10.20
2022-11-24T17:18:49.276Z,10.01
2022-11-24T17:21:18.782Z,9.91
2022-11-24T17:23:45.761Z,9.95
2022-11-24T17:26:14.976Z,9.89
2022-11-24T17:28:42.524Z,9.84
2022-11-24T17:31:28.658Z,9.77
2022-11-24T17:33:57.101Z,9.70
2022-11-24T17:36:23.616Z,9.32
2022-11-24T17:38:50.453Z,9.58
2022-11-24T17:41:17.864Z,9.60
2022-11-24T17:43:48.481Z,9.55
2022-11-24T17:46:14.940Z,9.56
2022-11-24T17:48:41.570Z,9.53
2022-11-24T17:51:12.915Z,9.61
2022-11-24T17:53:41.345Z,9.61
2022-11-24T17:56:11.369Z,9.57
2022-11-24T17:58:42.696Z,9.56
2022-11-24T18:01:10.913Z,9.60
2022-11-24T18:03:39.449Z,9.47
2022-11-24T18:06:14.286Z,9.57
2022-11-24T18:08:43.541Z,9.50
2022-11-24T18:11:12.926Z,9.42
2022-11-24T18:13:56.452Z,9.54
2022-11-24T18:16:28.125Z,9.51
2022-11-24T18:19:08.478Z,9.42
2022-11-24T18:21:44.675Z,9.31
2022-11-24T18:24:12.484Z,9.40
2022-11-24T18:26:40.815Z,9.40
2022-11-24T18:29:08.423Z,9.22
2022-11-24T18:31:35.830Z,9.24
2022-11-24T18:34:04.430Z,9.35
2022-11-24T18:36:31.571Z,9.32
2022-11-24T18:39:01.930Z,9.29
2022-11-24T18:41:28.384Z,9.20
2022-11-24T18:43:54.894Z,9.29
2022-11-24T18:46:21.587Z,9.09
2022-11-24T18:48:48.247Z,9.36
2022-11-24T18:51:14.901Z,9.32
2022-11-24T18:53:42.446Z,9.27
2022-11-24T18:56:13.216Z,9.29
2022-11-24T18:58:40.089Z,9.36
2022-11-24T19:01:07.610Z,9.36
2022-11-24T19:03:36.896Z,9.37
2022-11-24T19:06:04.779Z,9.35
2022-11-24T19:08:31.613Z,9.33
2022-11-24T19:10:58.298Z,9.23
2022-11-24T19:13:24.752Z,9.30
2022-11-24T19:15:52.009Z,9.28
2022-11-24T19:18:19.831Z,9.34
2022-11-24T19:20:46.406Z,9.17
2022-11-24T19:23:13.001Z,9.24
2022-11-24T19:25:39.457Z,9.18
2022-11-24T19:28:05.997Z,9.25
2022-11-24T19:30:32.449Z,9.16
2022-11-24T19:32:58.915Z,9.27
2022-11-24T19:35:25.557Z,9.32
2022-11-24T19:37:51.999Z,9.26
2022-11-24T19:40:18.546Z,9.21
2022-11-24T19:42:45.007Z,9.21
2022-11-24T19:45:11.475Z,9.25
2022-11-24T19:47:38.150Z,9.19
2022-11-24T19:50:10.216Z,9.19
2022-11-24T19:52:37.084Z,9.19
2022-11-24T19:55:03.744Z,9.16
2022-11-24T19:57:30.188Z,9.15
2022-11-24T19:59:56.740Z,9.18
2022-11-24T20:02:23.346Z,9.12
2022-11-24T20:04:49.849Z,9.09
2022-11-24T20:07:16.750Z,9.08
2022-11-24T20:09:43.229Z,8.76
2022-11-24T20:12:09.850Z,8.93
2022-11-24T20:14:36.741Z,8.90
2022-11-24T20:17:04.603Z,8.85
2022-11-24T20:19:32.688Z,8.85
2022-11-24T20:22:00.151Z,8.79
2022-11-24T20:24:26.614Z,8.79
2022-11-24T20:26:58.868Z,8.67
2022-11-24T20:29:25.904Z,8.60
2022-11-24T20:31:54.734Z,8.64
2022-11-24T20:34:22.307Z,8.60
2022-11-24T20:36:49.245Z,8.37
2022-11-24T20:39:18.965Z,8.49
2022-11-24T20:41:45.547Z,8.45
2022-11-24T20:44:17.104Z,8.37
2022-11-24T20:46:45.371Z,8.40
2022-11-24T20:49:14.911Z,8.38
2022-11-24T20:51:46.921Z,8.22
2022-11-24T20:54:14.500Z,8.35
2022-11-24T20:56:42.948Z,8.31
2022-11-24T20:59:16.030Z,8.11
2022-11-24T21:01:45.375Z,8.10
2022-11-24T21:04:16.519Z,8.26
2022-11-24T21:06:43.097Z,8.18
2022-11-24T21:09:10.308Z,8.18
2022-11-24T21:11:38.141Z,8.15
2022-11-24T21:14:05.550Z,8.07
2022-11-24T21:16:40.167Z,8.02
2022-11-24T21:19:10.179Z,7.94
2022-11-24T21:21:37.623Z,7.89
2022-11-24T21:24:25.700Z,7.74
2022-11-24T21:26:52.799Z,7.63
2022-11-24T21:29:22.199Z,7.75
2022-11-24T21:31:48.959Z,7.71
2022-11-24T21:34:18.340Z,7.74
2022-11-24T21:36:45.392Z,7.78
2022-11-24T21:39:13.701Z,7.70
2022-11-24T21:41:40.829Z,7.74
2022-11-24T21:44:07.358Z,7.77
2022-11-24T21:46:40.443Z,7.60
2022-11-24T21:49:09.081Z,7.69
2022-11-24T21:51:35.558Z,7.73
2022-11-24T21:54:02.097Z,7.72
2022-11-24T21:56:28.629Z,7.70
2022-11-24T21:58:57.323Z,7.78
2022-11-24T22:01:27.224Z,7.79
2022-11-24T22:03:54.383Z,7.88
2022-11-24T22:06:21.291Z,7.74
2022-11-24T22:08:48.247Z,7.77
2022-11-24T22:11:20.927Z,7.89
2022-11-24T22:13:48.771Z,7.91
2022-11-24T22:16:17.790Z,7.90
2022-11-24T22:18:45.530Z,7.88
2022-11-24T22:21:17.641Z,7.89
2022-11-24T22:23:44.206Z,7.83
2022-11-24T22:26:12.464Z,7.73
2022-11-24T22:28:39.535Z,7.91
2022-11-24T22:31:11.885Z,7.95
2022-11-24T22:33:39.295Z,7.96
2022-11-24T22:36:06.731Z,7.99
2022-11-24T22:38:34.416Z,8.04
2022-11-24T22:41:02.605Z,8.06
2022-11-24T22:43:31.612Z,8.06
2022-11-24T22:46:03.116Z,8.03
2022-11-24T22:48:29.621Z,8.01
2022-11-24T22:51:04.656Z,8.11
2022-11-24T22:53:31.145Z,7.98
2022-11-24T22:56:01.298Z,7.94
2022-11-24T22:58:27.871Z,8.10
2022-11-24T23:00:54.302Z,8.14
2022-11-24T23:03:20.859Z,8.01
2022-11-24T23:05:47.502Z,7.90
2022-11-24T23:08:13.960Z,8.09
2022-11-24T23:10:40.403Z,8.15
2022-11-24T23:13:06.970Z,8.05
2022-11-24T23:15:33.414Z,8.06
2022-11-24T23:17:59.910Z,8.04
2022-11-24T23:20:26.449Z,7.97
2022-11-24T23:22:53.195Z,7.96
2022-11-24T23:25:19.629Z,8.00
2022-11-24T23:27:46.077Z,8.00
2022-11-24T23:30:12.630Z,8.01
2022-11-24T23:32:39.195Z,7.74
2022-11-24T23:35:09.659Z,8.05
2022-11-24T23:38:06.036Z,7.80
2022-11-24T23:40:26.673Z,8.06
2022-11-24T23:42:53.111Z,8.09
2022-11-24T23:45:19.549Z,8.06
2022-11-24T23:47:46.025Z,8.09
2022-11-24T23:50:12.562Z,8.02
2022-11-24T23:52:39.067Z,7.99
2022-11-24T23:55:05.918Z,7.99
2022-11-24T23:57:32.352Z,7.92
2022-11-24T23:59:58.784Z,7.89
